createdAt,value
2019-05-06T00:02:20.789Z,95.56
2019-05-06T00:04:51.526Z,95.24
2019-05-06T00:07:25.451Z,95.23
2019-05-06T00:09:56.221Z,95.25
2019-05-06T00:12:28.234Z,95.39
2019-05-06T00:15:00.209Z,95.33
2019-05-06T00:17:31.001Z,95.28
2019-05-06T00:20:04.119Z,95.33
2019-05-06T00:22:36.067Z,95.48
2019-05-06T00:25:14.045Z,95.38
2019-05-06T00:28:04.197Z,95.43
2019-05-06T00:30:35.018Z,95.53
2019-05-06T00:33:07.671Z,95.56
2019-05-06T00:35:38.407Z,95.43
2019-05-06T00:38:09.162Z,95.03
2019-05-06T00:40:43.674Z,94.51
2019-05-06T00:43:14.345Z,94.92
2019-05-06T00:45:44.849Z,95.23
2019-05-06T00:48:15.852Z,95.03
2019-05-06T00:50:47.725Z,94.64
2019-05-06T00:53:23.412Z,94.42
2019-05-06T00:55:59.851Z,94.33
2019-05-06T00:58:30.622Z,94.31
2019-05-06T01:01:04.441Z,94.17
2019-05-06T01:03:41.092Z,94.17
2019-05-06T01:06:11.788Z,94.00
2019-05-06T01:08:44.045Z,93.94
2019-05-06T01:11:14.992Z,94.32
2019-05-06T01:14:09.409Z,94.41
2019-05-06T01:16:43.941Z,94.75
2019-05-06T01:19:15.058Z,94.68
2019-05-06T01:21:46.899Z,94.29
2019-05-06T01:24:19.785Z,93.81
2019-05-06T01:26:53.647Z,93.52
2019-05-06T01:29:36.360Z,93.81
2019-05-06T01:32:08.307Z,93.92
2019-05-06T01:34:44.698Z,94.23
2019-05-06T01:37:16.830Z,94.48
2019-05-06T01:40:10.506Z,94.39
2019-05-06T01:43:14.385Z,94.44
2019-05-06T01:45:44.670Z,94.66
2019-05-06T01:48:17.352Z,94.76
2019-05-06T01:50:55.170Z,94.56
2019-05-06T01:53:27.145Z,94.02
2019-05-06T01:55:57.928Z,93.99
2019-05-06T01:58:33.862Z,94.25
2019-05-06T02:01:04.765Z,94.15
2019-05-06T02:03:35.383Z,94.11
2019-05-06T02:06:15.373Z,94.35
2019-05-06T02:08:46.258Z,94.12
2019-05-06T02:11:17.042Z,93.82
2019-05-06T02:13:48.954Z,93.71
2019-05-06T02:16:19.562Z,93.77
2019-05-06T02:18:50.457Z,93.77
2019-05-06T02:21:43.702Z,93.65
2019-05-06T02:24:19.799Z,93.96
2019-05-06T02:26:53.719Z,94.03
2019-05-06T02:29:27.836Z,93.93
2019-05-06T02:32:25.466Z,93.72
2019-05-06T02:35:09.413Z,93.78
2019-05-06T02:37:41.451Z,93.64
2019-05-06T02:40:24.822Z,93.47
2019-05-06T02:42:56.052Z,93.78
2019-05-06T02:45:27.919Z,93.47
2019-05-06T02:48:08.033Z,93.71
2019-05-06T02:51:00.030Z,93.92
2019-05-06T02:53:34.160Z,93.97
2019-05-06T02:56:05.037Z,93.93
2019-05-06T02:58:38.405Z,93.95
2019-05-06T03:01:15.275Z,93.87
2019-05-06T03:03:46.094Z,93.75
2019-05-06T03:06:16.791Z,94.00
2019-05-06T03:08:47.560Z,94.13
2019-05-06T03:11:18.668Z,94.02
2019-05-06T03:13:49.440Z,94.16
2019-05-06T03:16:19.988Z,94.29
2019-05-06T03:18:53.232Z,94.38
2019-05-06T03:22:03.370Z,94.29
2019-05-06T03:24:43.894Z,94.38
2019-05-06T03:27:14.733Z,94.53
2019-05-06T03:29:45.434Z,94.50
2019-05-06T03:32:22.813Z,94.58
2019-05-06T03:35:08.866Z,94.62
2019-05-06T03:37:24.275Z,94.17
2019-05-06T03:40:02.972Z,94.18
2019-05-06T03:42:33.903Z,94.55
2019-05-06T03:45:13.525Z,94.82
2019-05-06T03:47:59.267Z,94.83
2019-05-06T03:50:33.487Z,94.56
2019-05-06T03:53:04.979Z,94.79
2019-05-06T03:55:36.710Z,94.73
2019-05-06T03:58:09.875Z,94.96
2019-05-06T04:00:43.748Z,95.17
2019-05-06T04:03:15.789Z,95.41
2019-05-06T04:05:48.581Z,95.46
2019-05-06T04:08:24.168Z,95.72
2019-05-06T04:10:56.176Z,95.65
2019-05-06T04:13:26.916Z,95.43
2019-05-06T04:16:13.724Z,95.25
2019-05-06T04:18:54.506Z,95.23
2019-05-06T04:21:43.793Z,95.22
2019-05-06T04:24:35.062Z,95.11
2019-05-06T04:27:42.950Z,95.10
2019-05-06T04:30:16.150Z,94.69
2019-05-06T04:32:47.014Z,94.84
2019-05-06T04:35:24.017Z,94.87
2019-05-06T04:37:54.985Z,95.03
2019-05-06T04:40:27.052Z,95.30
2019-05-06T04:42:58.837Z,95.44
2019-05-06T04:45:29.779Z,95.48
2019-05-06T04:48:03.528Z,95.42
2019-05-06T04:50:34.517Z,95.32
2019-05-06T04:53:05.668Z,95.40
2019-05-06T04:55:37.941Z,95.50
2019-05-06T04:58:08.750Z,95.62
2019-05-06T05:00:39.589Z,95.81
2019-05-06T05:03:13.656Z,95.93
2019-05-06T05:05:44.941Z,96.21
2019-05-06T05:08:24.558Z,96.47
2019-05-06T05:11:04.930Z,96.43
2019-05-06T05:13:59.156Z,96.40
2019-05-06T05:16:37.005Z,96.32
2019-05-06T05:19:15.027Z,96.38
2019-05-06T05:21:46.447Z,96.61
2019-05-06T05:24:17.388Z,96.62
2019-05-06T05:26:52.186Z,96.56
2019-05-06T05:29:24.361Z,96.66
2019-05-06T05:32:02.227Z,96.67
2019-05-06T05:34:39.833Z,96.80
2019-05-06T05:37:06.803Z,96.63
2019-05-06T05:39:42.451Z,96.51
2019-05-06T05:42:32.828Z,96.72
2019-05-06T05:45:04.795Z,97.28
2019-05-06T05:47:36.724Z,97.37
2019-05-06T05:50:38.320Z,97.05
2019-05-06T05:53:12.088Z,96.77
2019-05-06T05:55:46.463Z,97.06
2019-05-06T05:58:24.991Z,97.14
2019-05-06T06:00:55.800Z,97.36
2019-05-06T06:03:27.915Z,97.40
2019-05-06T06:05:59.269Z,97.42
2019-05-06T06:08:32.102Z,97.55
2019-05-06T06:11:15.015Z,97.49
2019-05-06T06:13:45.855Z,97.38
2019-05-06T06:16:35.548Z,97.49
2019-05-06T06:19:25.114Z,96.87
2019-05-06T06:22:02.832Z,96.47
2019-05-06T06:24:35.642Z,96.28
2019-05-06T06:27:09.493Z,95.94
2019-05-06T06:29:41.794Z,95.66
2019-05-06T06:32:19.099Z,95.54
2019-05-06T06:35:22.763Z,95.31
2019-05-06T06:38:23.879Z,94.68
2019-05-06T06:41:02.710Z,94.11
2019-05-06T06:43:33.780Z,93.57
2019-05-06T06:46:09.432Z,93.00
2019-05-06T06:48:39.316Z,92.67
2019-05-06T06:51:12.383Z,92.06
2019-05-06T06:53:50.184Z,91.43
2019-05-06T06:56:36.661Z,91.40
2019-05-06T06:59:17.920Z,90.36
2019-05-06T07:02:05.001Z,89.03
2019-05-06T07:05:02.248Z,88.71
2019-05-06T07:07:43.716Z,88.54
2019-05-06T07:10:12.149Z,88.04
2019-05-06T07:12:45.203Z,88.38
2019-05-06T07:15:18.067Z,88.09
2019-05-06T07:17:50.014Z,86.92
2019-05-06T07:20:32.499Z,86.00
2019-05-06T07:23:24.740Z,86.62
2019-05-06T07:25:57.191Z,85.56
2019-05-06T07:28:28.156Z,85.18
2019-05-06T07:31:16.711Z,86.00
2019-05-06T07:33:33.702Z,85.40
2019-05-06T07:36:06.269Z,84.68
2019-05-06T07:38:43.713Z,84.71
2019-05-06T07:41:23.391Z,84.44
2019-05-06T07:44:13.036Z,82.42
2019-05-06T07:47:15.553Z,79.64
2019-05-06T07:49:48.136Z,77.78
2019-05-06T07:52:23.039Z,78.47
2019-05-06T07:54:54.965Z,78.00
2019-05-06T07:57:25.684Z,77.59
2019-05-06T08:00:03.357Z,77.70
2019-05-06T08:02:35.929Z,75.42
2019-05-06T08:05:08.314Z,73.16
2019-05-06T08:07:38.876Z,75.05
2019-05-06T08:10:13.618Z,73.58
2019-05-06T08:12:44.492Z,74.54
2019-05-06T08:15:16.714Z,75.41
2019-05-06T08:17:47.517Z,75.34
2019-05-06T08:20:23.001Z,75.46
2019-05-06T08:23:12.481Z,75.80
2019-05-06T08:25:49.152Z,75.49
2019-05-06T08:28:22.396Z,74.26
2019-05-06T08:30:53.216Z,73.10
2019-05-06T08:33:27.432Z,72.46
2019-05-06T08:36:08.829Z,71.07
2019-05-06T08:38:50.094Z,69.69
2019-05-06T08:41:22.859Z,67.52
2019-05-06T08:43:53.502Z,67.12
2019-05-06T08:46:24.741Z,67.61
2019-05-06T08:48:56.619Z,66.64
2019-05-06T08:51:43.984Z,67.06
2019-05-06T08:54:22.790Z,69.19
2019-05-06T08:56:55.848Z,69.19
2019-05-06T08:59:32.103Z,68.36
2019-05-06T09:02:05.051Z,69.12
2019-05-06T09:04:35.867Z,67.83
2019-05-06T09:07:07.774Z,64.68
2019-05-06T09:09:39.413Z,64.40
2019-05-06T09:12:13.002Z,64.65
2019-05-06T09:14:44.143Z,63.63
2019-05-06T09:17:14.826Z,63.49
2019-05-06T09:19:45.466Z,62.41
2019-05-06T09:22:16.461Z,61.04
2019-05-06T09:24:47.489Z,60.74
2019-05-06T09:27:26.004Z,59.66
2019-05-06T09:30:09.949Z,58.84
2019-05-06T09:32:44.139Z,53.47
2019-05-06T09:35:16.042Z,55.11
2019-05-06T09:37:49.002Z,55.94
2019-05-06T09:40:22.769Z,56.63
2019-05-06T09:42:57.186Z,51.32
2019-05-06T09:45:28.332Z,49.79
2019-05-06T09:48:17.650Z,47.65
2019-05-06T09:50:53.824Z,49.11
2019-05-06T09:53:39.516Z,47.84
2019-05-06T09:56:27.653Z,48.85
2019-05-06T09:58:59.544Z,48.91
2019-05-06T10:01:32.965Z,51.68
2019-05-06T10:04:08.391Z,52.22
2019-05-06T10:06:39.448Z,50.66
2019-05-06T10:09:15.978Z,49.54
2019-05-06T10:11:44.914Z,48.15
2019-05-06T10:14:15.532Z,49.08
2019-05-06T10:16:49.255Z,49.65
2019-05-06T10:19:22.394Z,47.70
2019-05-06T10:21:53.034Z,46.20
2019-05-06T10:24:23.843Z,46.00
2019-05-06T10:26:59.214Z,46.35
2019-05-06T10:29:47.020Z,46.32
2019-05-06T10:32:48.743Z,45.81
2019-05-06T10:35:22.202Z,47.76
2019-05-06T10:38:52.886Z,47.32
2019-05-06T10:41:28.755Z,48.48
2019-05-06T10:44:28.414Z,47.27
2019-05-06T10:46:58.952Z,46.91
2019-05-06T10:49:29.562Z,45.36
2019-05-06T10:52:27.830Z,47.56
2019-05-06T10:54:58.482Z,46.98
2019-05-06T10:57:40.304Z,49.44
2019-05-06T11:00:09.182Z,48.42
2019-05-06T11:02:58.575Z,48.21
2019-05-06T11:05:32.554Z,47.37
2019-05-06T11:08:03.150Z,47.66
2019-05-06T11:10:41.140Z,48.31
2019-05-06T11:13:09.268Z,46.15
2019-05-06T11:15:39.921Z,46.60
2019-05-06T11:18:13.281Z,45.53
2019-05-06T11:20:43.850Z,45.53
2019-05-06T11:23:14.785Z,47.27
2019-05-06T11:25:45.379Z,47.77
2019-05-06T11:28:35.338Z,47.33
2019-05-06T11:31:16.098Z,47.28
2019-05-06T11:33:58.100Z,47.97
2019-05-06T11:36:43.958Z,47.92
2019-05-06T11:39:14.575Z,48.01
2019-05-06T11:42:01.489Z,45.79
2019-05-06T11:44:17.435Z,48.18
2019-05-06T11:46:47.967Z,48.13
2019-05-06T11:49:18.511Z,46.88
2019-05-06T11:51:49.143Z,45.86
2019-05-06T11:54:21.562Z,45.46
2019-05-06T11:56:57.962Z,46.66
2019-05-06T11:59:24.605Z,46.44
2019-05-06T12:01:59.428Z,47.78
2019-05-06T12:04:29.920Z,45.49
2019-05-06T12:07:11.195Z,51.07
2019-05-06T12:09:35.679Z,45.74
2019-05-06T12:12:06.281Z,47.17
2019-05-06T12:14:36.824Z,46.72
2019-05-06T12:17:07.455Z,45.79
2019-05-06T12:19:38.028Z,46.52
2019-05-06T12:22:08.655Z,46.49
2019-05-06T12:24:39.206Z,47.17
2019-05-06T12:27:09.794Z,46.95
2019-05-06T12:29:42.814Z,46.52
2019-05-06T12:32:46.894Z,45.85
2019-05-06T12:35:17.528Z,47.09
2019-05-06T12:37:50.379Z,46.91
2019-05-06T12:40:21.113Z,45.91
2019-05-06T12:42:55.963Z,45.85
2019-05-06T12:45:39.576Z,45.96
2019-05-06T12:48:23.107Z,46.49
2019-05-06T12:50:53.666Z,46.30
2019-05-06T12:53:24.290Z,44.54
2019-05-06T12:55:54.817Z,45.70
2019-05-06T12:58:25.407Z,45.46
2019-05-06T13:00:55.975Z,44.49
2019-05-06T13:03:26.637Z,44.95
2019-05-06T13:05:57.156Z,44.68
2019-05-06T13:08:41.217Z,46.38
2019-05-06T13:11:02.437Z,47.85
2019-05-06T13:13:33.151Z,47.87
2019-05-06T13:16:05.509Z,46.54
2019-05-06T13:18:36.116Z,47.59
2019-05-06T13:21:09.151Z,48.87
2019-05-06T13:23:50.110Z,49.37
2019-05-06T13:26:22.288Z,46.87
2019-05-06T13:28:57.520Z,47.38
2019-05-06T13:31:28.102Z,46.45
2019-05-06T13:34:05.164Z,47.02
2019-05-06T13:36:35.752Z,48.08
2019-05-06T13:39:14.386Z,48.32
2019-05-06T13:41:42.691Z,47.31
2019-05-06T13:44:14.758Z,46.93
2019-05-06T13:46:50.107Z,49.18
2019-05-06T13:49:38.104Z,48.26
2019-05-06T13:52:12.780Z,48.99
2019-05-06T13:54:43.445Z,51.89
2019-05-06T13:57:15.271Z,51.18
2019-05-06T13:59:47.018Z,48.79
2019-05-06T14:02:46.215Z,49.00
2019-05-06T14:05:17.324Z,49.16
2019-05-06T14:07:52.502Z,48.76
2019-05-06T14:10:23.886Z,49.44
2019-05-06T14:12:57.848Z,47.99
2019-05-06T14:15:28.559Z,49.57
2019-05-06T14:17:59.271Z,49.88
2019-05-06T14:20:33.391Z,50.11
2019-05-06T14:23:03.621Z,49.49
2019-05-06T14:26:07.425Z,50.62
2019-05-06T14:28:53.473Z,49.08
2019-05-06T14:31:35.873Z,49.40
2019-05-06T14:34:06.736Z,49.98
2019-05-06T14:36:37.536Z,50.33
2019-05-06T14:39:16.229Z,49.57
2019-05-06T14:41:49.108Z,49.23
2019-05-06T14:44:23.299Z,49.19
2019-05-06T14:47:09.962Z,49.42
2019-05-06T14:49:43.543Z,51.31
2019-05-06T14:52:22.631Z,50.58
2019-05-06T14:55:04.064Z,49.49
2019-05-06T14:57:35.060Z,50.72
2019-05-06T15:00:14.771Z,48.50
2019-05-06T15:02:45.517Z,50.63
2019-05-06T15:05:18.825Z,49.45
2019-05-06T15:07:49.454Z,49.21
2019-05-06T15:10:26.487Z,48.38
2019-05-06T15:13:02.174Z,49.46
2019-05-06T15:15:32.707Z,49.17
2019-05-06T15:18:04.654Z,50.01
2019-05-06T15:20:36.783Z,49.30
2019-05-06T15:23:07.718Z,49.36
2019-05-06T15:25:39.360Z,50.72
2019-05-06T15:28:13.068Z,49.87
2019-05-06T15:30:59.376Z,51.69
2019-05-06T15:33:33.963Z,52.33
2019-05-06T15:36:18.724Z,51.52
2019-05-06T15:38:49.489Z,51.34
2019-05-06T15:41:22.339Z,51.51
2019-05-06T15:43:52.955Z,50.16
2019-05-06T15:46:23.723Z,51.03
2019-05-06T15:48:55.774Z,50.94
2019-05-06T15:51:35.643Z,51.80
2019-05-06T15:54:09.063Z,51.56
2019-05-06T15:56:42.090Z,51.19
2019-05-06T15:59:13.367Z,52.35
2019-05-06T16:01:52.939Z,49.81
2019-05-06T16:04:23.147Z,50.13
2019-05-06T16:06:59.812Z,51.05
2019-05-06T16:09:33.014Z,50.92
2019-05-06T16:12:05.770Z,50.11
2019-05-06T16:14:36.596Z,49.68
2019-05-06T16:17:12.313Z,50.25
2019-05-06T16:19:51.167Z,49.88
2019-05-06T16:22:22.748Z,50.57
2019-05-06T16:24:59.062Z,51.26
2019-05-06T16:27:29.964Z,51.25
2019-05-06T16:30:03.473Z,51.21
2019-05-06T16:32:35.666Z,52.83
2019-05-06T16:35:07.109Z,53.82
2019-05-06T16:37:42.058Z,55.29
2019-05-06T16:40:23.014Z,54.06
2019-05-06T16:42:54.734Z,55.66
2019-05-06T16:45:26.397Z,55.69
2019-05-06T16:47:58.528Z,57.03
2019-05-06T16:50:32.987Z,58.49
2019-05-06T16:53:05.181Z,57.92
2019-05-06T16:55:55.987Z,59.06
2019-05-06T16:58:32.397Z,60.71
2019-05-06T17:01:04.922Z,59.81
2019-05-06T17:03:49.206Z,59.08
2019-05-06T17:06:28.720Z,59.21
2019-05-06T17:09:14.073Z,59.47
2019-05-06T17:11:37.458Z,59.07
2019-05-06T17:14:08.420Z,59.84
2019-05-06T17:16:42.369Z,60.97
2019-05-06T17:19:13.005Z,60.56
2019-05-06T17:21:48.185Z,60.59
2019-05-06T17:24:17.563Z,62.07
2019-05-06T17:26:49.539Z,62.37
2019-05-06T17:29:42.662Z,61.98
2019-05-06T17:32:28.659Z,61.01
2019-05-06T17:35:03.861Z,60.04
2019-05-06T17:38:08.822Z,61.61
2019-05-06T17:40:43.780Z,63.66
2019-05-06T17:43:14.608Z,64.35
2019-05-06T17:46:02.897Z,63.61
2019-05-06T17:48:48.949Z,63.09
2019-05-06T17:51:23.537Z,62.01
2019-05-06T17:54:01.729Z,60.46
2019-05-06T17:56:33.649Z,60.28
2019-05-06T17:59:04.492Z,61.85
2019-05-06T18:01:39.197Z,62.23
2019-05-06T18:04:12.565Z,61.88
2019-05-06T18:06:43.585Z,61.21
2019-05-06T18:09:17.726Z,60.78
2019-05-06T18:11:58.564Z,61.12
2019-05-06T18:14:23.028Z,60.29
2019-05-06T18:17:07.057Z,59.81
2019-05-06T18:19:34.930Z,59.98
2019-05-06T18:22:05.608Z,60.08
2019-05-06T18:24:40.499Z,60.18
2019-05-06T18:27:13.232Z,59.96
2019-05-06T18:29:46.439Z,60.13
2019-05-06T18:32:18.402Z,60.21
2019-05-06T18:34:52.769Z,60.62
2019-05-06T18:37:26.780Z,61.66
2019-05-06T18:39:57.615Z,61.75
2019-05-06T18:42:28.256Z,62.77
2019-05-06T18:45:04.876Z,65.67
2019-05-06T18:47:38.768Z,67.15
2019-05-06T18:50:12.547Z,68.00
2019-05-06T18:52:45.551Z,68.77
2019-05-06T18:55:19.542Z,69.20
2019-05-06T18:57:54.505Z,69.09
2019-05-06T19:00:27.311Z,69.66
2019-05-06T19:02:57.940Z,70.40
2019-05-06T19:05:35.629Z,70.48
2019-05-06T19:08:16.598Z,70.98
2019-05-06T19:10:58.799Z,71.33
2019-05-06T19:13:32.900Z,71.99
2019-05-06T19:16:03.360Z,72.16
2019-05-06T19:18:42.715Z,72.41
2019-05-06T19:21:13.692Z,72.73
2019-05-06T19:23:45.599Z,73.24
2019-05-06T19:26:16.210Z,73.19
2019-05-06T19:28:47.096Z,73.74
2019-05-06T19:31:22.789Z,74.14
2019-05-06T19:33:56.987Z,74.03
2019-05-06T19:36:28.701Z,74.64
2019-05-06T19:38:59.408Z,74.60
2019-05-06T19:41:33.289Z,74.50
2019-05-06T19:44:09.721Z,75.07
2019-05-06T19:46:42.398Z,75.11
2019-05-06T19:49:13.378Z,75.68
2019-05-06T19:51:44.270Z,75.82
2019-05-06T19:54:14.913Z,75.65
2019-05-06T19:56:46.928Z,75.61
2019-05-06T19:59:17.648Z,75.93
2019-05-06T20:02:00.150Z,76.32
2019-05-06T20:04:33.231Z,76.66
2019-05-06T20:07:13.327Z,76.89
2019-05-06T20:09:56.815Z,77.01
2019-05-06T20:12:40.820Z,77.23
2019-05-06T20:15:34.565Z,76.84
2019-05-06T20:18:06.662Z,76.72
2019-05-06T20:20:38.075Z,77.18
2019-05-06T20:23:12.352Z,78.17
2019-05-06T20:25:45.007Z,78.97
2019-05-06T20:28:17.211Z,79.32
2019-05-06T20:30:47.984Z,79.35
2019-05-06T20:33:21.930Z,79.02
2019-05-06T20:35:53.548Z,79.33
2019-05-06T20:38:24.300Z,79.03
2019-05-06T20:40:55.009Z,78.77
2019-05-06T20:43:30.171Z,78.78
2019-05-06T20:46:02.750Z,79.27
2019-05-06T20:48:33.495Z,79.01
2019-05-06T20:51:05.384Z,78.54
2019-05-06T20:53:37.304Z,77.87
2019-05-06T20:56:12.385Z,77.52
2019-05-06T20:58:44.028Z,78.05
2019-05-06T21:01:16.055Z,78.37
2019-05-06T21:03:48.832Z,77.71
2019-05-06T21:06:22.572Z,77.98
2019-05-06T21:08:54.313Z,78.13
2019-05-06T21:11:29.123Z,78.18
2019-05-06T21:13:59.559Z,77.79
2019-05-06T21:16:33.458Z,77.69
2019-05-06T21:19:04.317Z,77.93
2019-05-06T21:21:36.637Z,78.38
2019-05-06T21:24:13.064Z,78.82
2019-05-06T21:26:46.397Z,79.25
2019-05-06T21:29:17.483Z,79.02
2019-05-06T21:31:49.384Z,78.87
2019-05-06T21:34:22.210Z,78.85
2019-05-06T21:36:53.195Z,79.14
2019-05-06T21:39:24.174Z,78.94
2019-05-06T21:41:57.842Z,78.87
2019-05-06T21:44:28.859Z,78.88
2019-05-06T21:47:05.632Z,79.03
2019-05-06T21:49:39.189Z,79.39
2019-05-06T21:52:13.089Z,80.39
2019-05-06T21:54:44.117Z,80.34
2019-05-06T21:57:16.571Z,80.54
2019-05-06T21:59:48.383Z,80.46
2019-05-06T22:02:25.831Z,80.58
2019-05-06T22:04:56.407Z,80.52
2019-05-06T22:07:28.384Z,80.79
2019-05-06T22:10:00.373Z,81.03
2019-05-06T22:12:32.193Z,81.42
2019-05-06T22:15:05.141Z,81.83
2019-05-06T22:17:39.185Z,83.01
2019-05-06T22:20:10.710Z,83.42
2019-05-06T22:22:44.539Z,83.05
2019-05-06T22:25:15.849Z,82.24
2019-05-06T22:27:47.866Z,82.22
2019-05-06T22:30:19.324Z,82.32
2019-05-06T22:32:49.895Z,83.51
2019-05-06T22:35:22.888Z,83.26
2019-05-06T22:37:55.152Z,83.00
2019-05-06T22:40:25.830Z,83.03
2019-05-06T22:42:58.725Z,83.09
2019-05-06T22:45:29.344Z,83.24
2019-05-06T22:47:59.871Z,82.95
2019-05-06T22:50:32.973Z,82.79
2019-05-06T22:53:03.549Z,82.69
2019-05-06T22:55:34.471Z,82.49
2019-05-06T22:58:07.025Z,82.61
2019-05-06T23:00:42.538Z,83.65
2019-05-06T23:03:15.801Z,84.53
2019-05-06T23:05:47.386Z,84.03
2019-05-06T23:08:17.966Z,83.71
2019-05-06T23:10:48.588Z,83.16
2019-05-06T23:13:19.410Z,83.22
2019-05-06T23:18:34.020Z,83.84
2019-05-06T23:21:04.568Z,84.12
2019-05-06T23:23:35.886Z,84.07
2019-05-06T23:26:23.427Z,84.28
2019-05-06T23:28:54.033Z,85.24
2019-05-06T23:31:24.962Z,84.50
2019-05-06T23:33:55.978Z,84.43
2019-05-06T23:36:28.831Z,85.11
2019-05-06T23:40:03.353Z,85.63
2019-05-06T23:43:27.805Z,86.09
2019-05-06T23:46:52.904Z,86.31
2019-05-06T23:50:17.839Z,85.73
2019-05-06T23:53:44.860Z,85.28
2019-05-06T23:56:54.099Z,85.53
2019-05-06T23:59:24.701Z,86.10
